sensor_id;sensor_type;location;lat;lon;timestamp;pressure;altitude;pressure_sealevel;temperature;humidity
21236;BME280;10775;42.678;26.324;2022-07-04T00:02:14;98822.78;;;24.15;50.88
21236;BME280;10775;42.678;26.324;2022-07-04T00:04:39;98818.75;;;24.34;62.30
21236;BME280;10775;42.678;26.324;2022-07-04T00:07:05;98829.84;;;23.79;59.57
21236;BME280;10775;42.678;26.324;2022-07-04T00:09:31;98825.66;;;24.25;63.08
21236;BME280;10775;42.678;26.324;2022-07-04T00:11:56;98828.25;;;23.51;65.03
21236;BME280;10775;42.678;26.324;2022-07-04T00:14:22;98824.47;;;24.29;62.52
21236;BME280;10775;42.678;26.324;2022-07-04T00:16:47;98823.25;;;24.09;63.29
21236;BME280;10775;42.678;26.324;2022-07-04T00:19:13;98817.22;;;24.18;62.39
21236;BME280;10775;42.678;26.324;2022-07-04T00:21:38;98823.16;;;23.48;64.40
21236;BME280;10775;42.678;26.324;2022-07-04T00:24:04;98822.53;;;23.44;64.09
21236;BME280;10775;42.678;26.324;2022-07-04T00:26:48;98816.03;;;23.98;63.26
21236;BME280;10775;42.678;26.324;2022-07-04T00:29:14;98818.94;;;23.70;62.27
21236;BME280;10775;42.678;26.324;2022-07-04T00:31:40;98807.19;;;24.46;61.62
21236;BME280;10775;42.678;26.324;2022-07-04T00:34:06;98808.47;;;24.40;61.25
21236;BME280;10775;42.678;26.324;2022-07-04T00:36:31;98814.78;;;24.15;62.79
21236;BME280;10775;42.678;26.324;2022-07-04T00:38:57;98805.75;;;24.53;61.58
21236;BME280;10775;42.678;26.324;2022-07-04T00:41:23;98815.28;;;24.57;61.15
21236;BME280;10775;42.678;26.324;2022-07-04T00:44:09;98802.59;;;24.48;60.99
21236;BME280;10775;42.678;26.324;2022-07-04T00:46:35;98797.56;;;24.43;61.49
21236;BME280;10775;42.678;26.324;2022-07-04T00:49:03;98806.44;;;24.20;60.66
21236;BME280;10775;42.678;26.324;2022-07-04T00:51:29;98807.78;;;24.25;58.53
21236;BME280;10775;42.678;26.324;2022-07-04T00:53:55;98808.97;;;23.97;62.39
21236;BME280;10775;42.678;26.324;2022-07-04T00:56:22;98810.78;;;23.60;63.86
21236;BME280;10775;42.678;26.324;2022-07-04T00:58:47;98807.22;;;21.88;63.13
21236;BME280;10775;42.678;26.324;2022-07-04T01:01:13;98807.34;;;22.81;62.22
21236;BME280;10775;42.678;26.324;2022-07-04T01:03:39;98796.09;;;23.91;63.21
21236;BME280;10775;42.678;26.324;2022-07-04T01:06:06;98796.59;;;23.96;63.08
21236;BME280;10775;42.678;26.324;2022-07-04T01:08:36;98785.59;;;24.25;62.09
21236;BME280;10775;42.678;26.324;2022-07-04T01:11:02;98783.94;;;24.35;61.23
21236;BME280;10775;42.678;26.324;2022-07-04T01:13:28;98790.53;;;24.42;61.47
21236;BME280;10775;42.678;26.324;2022-07-04T01:15:53;98775.69;;;24.38;61.07
21236;BME280;10775;42.678;26.324;2022-07-04T01:18:19;98773.13;;;24.13;62.04
21236;BME280;10775;42.678;26.324;2022-07-04T01:20:44;98769.16;;;24.18;62.04
21236;BME280;10775;42.678;26.324;2022-07-04T01:23:10;98764.97;;;24.27;61.23
21236;BME280;10775;42.678;26.324;2022-07-04T01:25:36;98763.09;;;24.16;62.00
21236;BME280;10775;42.678;26.324;2022-07-04T01:28:02;98756.81;;;24.28;61.31
21236;BME280;10775;42.678;26.324;2022-07-04T01:30:29;98763.75;;;24.31;61.50
21236;BME280;10775;42.678;26.324;2022-07-04T01:32:55;98765.34;;;24.09;62.04
21236;BME280;10775;42.678;26.324;2022-07-04T01:35:22;98761.81;;;23.85;62.70
21236;BME280;10775;42.678;26.324;2022-07-04T01:37:49;98758.91;;;24.36;61.29
21236;BME280;10775;42.678;26.324;2022-07-04T01:40:15;98757.97;;;24.37;60.59
21236;BME280;10775;42.678;26.324;2022-07-04T01:42:41;98752.56;;;24.26;61.42
21236;BME280;10775;42.678;26.324;2022-07-04T01:45:08;98757.06;;;24.01;62.04
21236;BME280;10775;42.678;26.324;2022-07-04T01:47:35;98754.69;;;24.09;62.06
21236;BME280;10775;42.678;26.324;2022-07-04T01:50:01;98754.09;;;24.17;61.67
21236;BME280;10775;42.678;26.324;2022-07-04T01:52:27;98762.47;;;23.89;62.41
21236;BME280;10775;42.678;26.324;2022-07-04T01:54:52;98758.00;;;24.00;62.17
21236;BME280;10775;42.678;26.324;2022-07-04T01:57:18;98761.75;;;23.98;62.43
21236;BME280;10775;42.678;26.324;2022-07-04T01:59:43;98760.00;;;24.09;62.02
21236;BME280;10775;42.678;26.324;2022-07-04T02:02:27;98751.16;;;24.09;61.66
21236;BME280;10775;42.678;26.324;2022-07-04T02:04:53;98758.19;;;24.10;61.59
21236;BME280;10775;42.678;26.324;2022-07-04T02:07:19;98757.09;;;24.13;60.66
21236;BME280;10775;42.678;26.324;2022-07-04T02:09:44;98757.16;;;24.00;61.84
21236;BME280;10775;42.678;26.324;2022-07-04T02:12:10;98765.66;;;23.94;62.22
21236;BME280;10775;42.678;26.324;2022-07-04T02:14:54;98759.50;;;23.80;59.47
21236;BME280;10775;42.678;26.324;2022-07-04T02:17:20;98759.50;;;23.80;62.48
21236;BME280;10775;42.678;26.324;2022-07-04T02:19:45;98764.34;;;23.75;61.91
21236;BME280;10775;42.678;26.324;2022-07-04T02:22:11;98760.88;;;24.10;61.74
21236;BME280;10775;42.678;26.324;2022-07-04T02:27:02;98771.09;;;24.16;60.78
21236;BME280;10775;42.678;26.324;2022-07-04T02:29:28;98770.75;;;23.97;61.72
21236;BME280;10775;42.678;26.324;2022-07-04T02:31:53;98772.69;;;23.95;61.74
21236;BME280;10775;42.678;26.324;2022-07-04T02:34:19;98763.88;;;23.81;61.99
21236;BME280;10775;42.678;26.324;2022-07-04T02:36:45;98774.59;;;23.93;61.65
21236;BME280;10775;42.678;26.324;2022-07-04T02:39:10;98770.00;;;23.58;61.58
21236;BME280;10775;42.678;26.324;2022-07-04T02:41:36;98771.88;;;23.69;62.20
21236;BME280;10775;42.678;26.324;2022-07-04T02:44:02;98771.34;;;23.76;62.00
21236;BME280;10775;42.678;26.324;2022-07-04T02:46:27;98770.81;;;23.71;61.28
21236;BME280;10775;42.678;26.324;2022-07-04T02:48:53;98774.78;;;24.02;61.27
21236;BME280;10775;42.678;26.324;2022-07-04T02:51:19;98775.06;;;23.86;61.27
21236;BME280;10775;42.678;26.324;2022-07-04T02:53:44;98776.16;;;23.71;61.61
21236;BME280;10775;42.678;26.324;2022-07-04T02:56:10;98776.66;;;23.39;62.87
21236;BME280;10775;42.678;26.324;2022-07-04T02:58:35;98784.31;;;23.44;62.59
21236;BME280;10775;42.678;26.324;2022-07-04T03:01:01;98788.53;;;23.72;61.81
21236;BME280;10775;42.678;26.324;2022-07-04T03:03:26;98783.59;;;23.92;61.11
21236;BME280;10775;42.678;26.324;2022-07-04T03:05:52;98785.97;;;23.71;61.54
21236;BME280;10775;42.678;26.324;2022-07-04T03:08:18;98799.88;;;23.63;61.71
21236;BME280;10775;42.678;26.324;2022-07-04T03:10:44;98792.84;;;23.23;62.49
21236;BME280;10775;42.678;26.324;2022-07-04T03:13:09;98796.59;;;23.21;56.70
21236;BME280;10775;42.678;26.324;2022-07-04T03:15:35;98808.66;;;23.27;62.77
21236;BME280;10775;42.678;26.324;2022-07-04T03:18:00;98808.88;;;23.23;62.77
21236;BME280;10775;42.678;26.324;2022-07-04T03:20:26;98810.44;;;23.52;61.82
21236;BME280;10775;42.678;26.324;2022-07-04T03:22:51;98799.09;;;23.86;61.21
21236;BME280;10775;42.678;26.324;2022-07-04T03:25:20;98806.59;;;24.05;60.44
21236;BME280;10775;42.678;26.324;2022-07-04T03:27:45;98810.09;;;24.19;59.88
21236;BME280;10775;42.678;26.324;2022-07-04T03:30:11;98818.09;;;24.19;59.76
21236;BME280;10775;42.678;26.324;2022-07-04T03:32:37;98814.34;;;24.21;59.88
21236;BME280;10775;42.678;26.324;2022-07-04T03:35:03;98814.59;;;24.05;60.17
21236;BME280;10775;42.678;26.324;2022-07-04T03:37:28;98812.91;;;24.04;60.08
21236;BME280;10775;42.678;26.324;2022-07-04T03:39:54;98815.91;;;24.00;58.99
21236;BME280;10775;42.678;26.324;2022-07-04T03:42:19;98817.50;;;24.02;60.35
21236;BME280;10775;42.678;26.324;2022-07-04T03:44:45;98816.97;;;23.97;60.16
21236;BME280;10775;42.678;26.324;2022-07-04T03:47:10;98826.13;;;23.56;60.12
21236;BME280;10775;42.678;26.324;2022-07-04T03:49:36;98823.34;;;23.71;60.85
21236;BME280;10775;42.678;26.324;2022-07-04T03:52:01;98814.53;;;23.44;61.89
21236;BME280;10775;42.678;26.324;2022-07-04T03:54:27;98822.69;;;23.67;61.10
21236;BME280;10775;42.678;26.324;2022-07-04T03:56:54;98822.69;;;23.67;60.88
21236;BME280;10775;42.678;26.324;2022-07-04T03:59:20;98813.28;;;23.87;60.64
21236;BME280;10775;42.678;26.324;2022-07-04T04:01:45;98820.22;;;23.90;60.18
21236;BME280;10775;42.678;26.324;2022-07-04T04:04:11;98816.19;;;24.08;59.74
21236;BME280;10775;42.678;26.324;2022-07-04T04:06:55;98821.78;;;23.30;61.33
21236;BME280;10775;42.678;26.324;2022-07-04T04:09:21;98816.06;;;23.85;60.46
21236;BME280;10775;42.678;26.324;2022-07-04T04:11:50;98815.81;;;24.01;59.69
21236;BME280;10775;42.678;26.324;2022-07-04T04:14:15;98810.13;;;24.06;59.35
21236;BME280;10775;42.678;26.324;2022-07-04T04:16:41;98816.09;;;24.09;59.37
21236;BME280;10775;42.678;26.324;2022-07-04T04:19:08;98813.31;;;24.11;59.24
21236;BME280;10775;42.678;26.324;2022-07-04T04:21:34;98814.69;;;24.17;59.22
21236;BME280;10775;42.678;26.324;2022-07-04T04:24:01;98809.72;;;24.23;58.76
21236;BME280;10775;42.678;26.324;2022-07-04T04:26:26;98807.88;;;24.37;58.33
21236;BME280;10775;42.678;26.324;2022-07-04T04:28:52;98807.34;;;24.32;58.44
21236;BME280;10775;42.678;26.324;2022-07-04T04:31:17;98816.59;;;24.39;58.15
21236;BME280;10775;42.678;26.324;2022-07-04T04:33:43;98820.13;;;24.39;58.15
21236;BME280;10775;42.678;26.324;2022-07-04T04:36:09;98824.97;;;24.34;58.29
21236;BME280;10775;42.678;26.324;2022-07-04T04:38:34;98822.63;;;24.29;58.21
21236;BME280;10775;42.678;26.324;2022-07-04T04:41:00;98828.31;;;24.25;58.39
21236;BME280;10775;42.678;26.324;2022-07-04T04:43:25;98827.84;;;24.31;58.20
21236;BME280;10775;42.678;26.324;2022-07-04T04:45:51;98825.13;;;24.20;58.60
21236;BME280;10775;42.678;26.324;2022-07-04T04:48:16;98830.69;;;24.17;58.76
21236;BME280;10775;42.678;26.324;2022-07-04T04:50:43;98829.56;;;24.32;58.16
21236;BME280;10775;42.678;26.324;2022-07-04T04:53:08;98832.28;;;23.82;59.04
21236;BME280;10775;42.678;26.324;2022-07-04T04:55:34;98837.47;;;23.21;56.51
21236;BME280;10775;42.678;26.324;2022-07-04T04:57:59;98832.31;;;23.31;60.77
21236;BME280;10775;42.678;26.324;2022-07-04T05:00:25;98842.78;;;23.85;59.51
21236;BME280;10775;42.678;26.324;2022-07-04T05:02:50;98847.47;;;23.56;57.74
21236;BME280;10775;42.678;26.324;2022-07-04T05:05:16;98834.72;;;23.98;59.05
21236;BME280;10775;42.678;26.324;2022-07-04T05:07:41;98835.84;;;24.07;58.73
21236;BME280;10775;42.678;26.324;2022-07-04T05:10:07;98832.81;;;24.24;58.28
21236;BME280;10775;42.678;26.324;2022-07-04T05:12:33;98834.00;;;24.20;58.34
21236;BME280;10775;42.678;26.324;2022-07-04T05:14:59;98837.59;;;24.32;57.78
21236;BME280;10775;42.678;26.324;2022-07-04T05:17:24;98837.19;;;24.25;58.28
21236;BME280;10775;42.678;26.324;2022-07-04T05:19:50;98839.91;;;24.13;58.43
21236;BME280;10775;42.678;26.324;2022-07-04T05:22:16;98845.66;;;24.19;58.51
21236;BME280;10775;42.678;26.324;2022-07-04T05:24:41;98835.91;;;24.18;58.26
21236;BME280;10775;42.678;26.324;2022-07-04T05:27:07;98840.47;;;23.30;48.93
21236;BME280;10775;42.678;26.324;2022-07-04T05:29:33;98841.97;;;22.81;48.73
21236;BME280;10775;42.678;26.324;2022-07-04T05:31:59;98839.16;;;23.61;59.62
21236;BME280;10775;42.678;26.324;2022-07-04T05:34:24;98829.06;;;24.27;57.99
21236;BME280;10775;42.678;26.324;2022-07-04T05:36:50;98823.88;;;24.49;57.02
21236;BME280;10775;42.678;26.324;2022-07-04T05:39:16;98838.41;;;23.59;48.93
21236;BME280;10775;42.678;26.324;2022-07-04T05:41:41;98836.84;;;24.30;57.65
21236;BME280;10775;42.678;26.324;2022-07-04T05:44:07;98831.03;;;24.36;56.68
21236;BME280;10775;42.678;26.324;2022-07-04T05:46:32;98843.88;;;24.31;57.21
21236;BME280;10775;42.678;26.324;2022-07-04T05:48:58;98832.06;;;24.70;56.58
21236;BME280;10775;42.678;26.324;2022-07-04T05:51:23;98829.34;;;24.94;55.78
21236;BME280;10775;42.678;26.324;2022-07-04T05:53:49;98829.00;;;24.99;55.11
21236;BME280;10775;42.678;26.324;2022-07-04T05:56:15;98836.09;;;24.28;55.40
21236;BME280;10775;42.678;26.324;2022-07-04T05:58:40;98823.97;;;24.48;56.16
21236;BME280;10775;42.678;26.324;2022-07-04T06:01:07;98829.69;;;24.90;51.08
21236;BME280;10775;42.678;26.324;2022-07-04T06:03:34;98820.13;;;25.10;48.98
21236;BME280;10775;42.678;26.324;2022-07-04T06:06:04;98823.56;;;24.77;49.53
21236;BME280;10775;42.678;26.324;2022-07-04T06:08:30;98822.25;;;25.17;48.54
21236;BME280;10775;42.678;26.324;2022-07-04T06:10:56;98817.53;;;25.32;48.09
21236;BME280;10775;42.678;26.324;2022-07-04T06:13:21;98828.09;;;25.45;46.88
21236;BME280;10775;42.678;26.324;2022-07-04T06:15:47;98822.38;;;25.38;47.40
21236;BME280;10775;42.678;26.324;2022-07-04T06:18:13;98820.69;;;25.49;47.75
21236;BME280;10775;42.678;26.324;2022-07-04T06:20:39;98817.28;;;25.80;47.07
21236;BME280;10775;42.678;26.324;2022-07-04T06:23:07;98818.06;;;26.15;46.13
21236;BME280;10775;42.678;26.324;2022-07-04T06:25:33;98814.72;;;27.19;44.10
21236;BME280;10775;42.678;26.324;2022-07-04T06:28:00;98802.59;;;27.96;41.70
21236;BME280;10775;42.678;26.324;2022-07-04T06:30:26;98812.97;;;27.70;42.89
21236;BME280;10775;42.678;26.324;2022-07-04T06:32:56;98806.41;;;27.53;43.90
21236;BME280;10775;42.678;26.324;2022-07-04T06:35:30;98809.94;;;27.84;37.60
21236;BME280;10775;42.678;26.324;2022-07-04T06:38:18;98805.63;;;28.32;39.64
21236;BME280;10775;42.678;26.324;2022-07-04T06:40:45;98796.97;;;29.25;37.43
21236;BME280;10775;42.678;26.324;2022-07-04T06:43:11;98800.09;;;29.86;35.00
21236;BME280;10775;42.678;26.324;2022-07-04T06:45:37;98802.78;;;29.01;36.79
21236;BME280;10775;42.678;26.324;2022-07-04T06:48:04;98800.38;;;29.93;36.00
21236;BME280;10775;42.678;26.324;2022-07-04T06:50:31;98801.94;;;30.13;34.65
21236;BME280;10775;42.678;26.324;2022-07-04T06:53:04;98802.22;;;30.73;32.62
21236;BME280;10775;42.678;26.324;2022-07-04T06:55:30;98808.19;;;31.55;32.81
21236;BME280;10775;42.678;26.324;2022-07-04T06:58:01;98796.41;;;31.99;31.97
21236;BME280;10775;42.678;26.324;2022-07-04T07:00:27;98804.97;;;31.26;33.25
21236;BME280;10775;42.678;26.324;2022-07-04T07:02:56;98806.31;;;29.68;34.46
21236;BME280;10775;42.678;26.324;2022-07-04T07:05:24;98809.13;;;30.22;33.84
21236;BME280;10775;42.678;26.324;2022-07-04T07:07:49;98814.44;;;30.50;30.38
21236;BME280;10775;42.678;26.324;2022-07-04T07:10:15;98819.03;;;31.11;32.36
21236;BME280;10775;42.678;26.324;2022-07-04T07:12:40;98809.78;;;31.74;31.68
21236;BME280;10775;42.678;26.324;2022-07-04T07:15:06;98811.44;;;32.01;31.70
21236;BME280;10775;42.678;26.324;2022-07-04T07:17:32;98808.63;;;32.19;31.96
21236;BME280;10775;42.678;26.324;2022-07-04T07:19:57;98806.97;;;31.24;29.69
21236;BME280;10775;42.678;26.324;2022-07-04T07:22:23;98813.06;;;31.52;32.38
21236;BME280;10775;42.678;26.324;2022-07-04T07:24:49;98803.59;;;30.60;33.61
21236;BME280;10775;42.678;26.324;2022-07-04T07:27:14;98803.22;;;31.85;29.28
21236;BME280;10775;42.678;26.324;2022-07-04T07:29:40;98806.00;;;31.59;32.63
21236;BME280;10775;42.678;26.324;2022-07-04T07:32:06;98791.72;;;32.34;31.00
21236;BME280;10775;42.678;26.324;2022-07-04T07:34:33;98793.47;;;31.24;30.26
21236;BME280;10775;42.678;26.324;2022-07-04T07:36:59;98799.53;;;31.78;30.98
21236;BME280;10775;42.678;26.324;2022-07-04T07:39:25;98794.38;;;30.17;28.78
21236;BME280;10775;42.678;26.324;2022-07-04T07:41:50;98800.22;;;29.94;31.57
21236;BME280;10775;42.678;26.324;2022-07-04T07:44:16;98800.06;;;31.29;28.78
21236;BME280;10775;42.678;26.324;2022-07-04T07:46:42;98792.66;;;32.75;30.36
21236;BME280;10775;42.678;26.324;2022-07-04T07:49:07;98787.91;;;32.69;29.86
21236;BME280;10775;42.678;26.324;2022-07-04T07:51:33;98793.09;;;31.18;31.25
21236;BME280;10775;42.678;26.324;2022-07-04T07:53:59;98790.75;;;32.43;30.28
21236;BME280;10775;42.678;26.324;2022-07-04T07:56:24;98785.53;;;32.74;30.11
21236;BME280;10775;42.678;26.324;2022-07-04T07:58:51;98788.22;;;33.15;26.30
21236;BME280;10775;42.678;26.324;2022-07-04T08:01:17;98781.78;;;33.00;28.88
21236;BME280;10775;42.678;26.324;2022-07-04T08:03:43;98774.22;;;33.67;28.50
21236;BME280;10775;42.678;26.324;2022-07-04T08:06:27;98779.31;;;33.46;26.31
21236;BME280;10775;42.678;26.324;2022-07-04T08:08:53;98781.59;;;32.36;30.09
21236;BME280;10775;42.678;26.324;2022-07-04T08:11:19;98782.47;;;32.77;29.75
21236;BME280;10775;42.678;26.324;2022-07-04T08:13:45;98785.84;;;32.87;30.08
21236;BME280;10775;42.678;26.324;2022-07-04T08:16:11;98783.16;;;32.63;30.76
21236;BME280;10775;42.678;26.324;2022-07-04T08:18:37;98784.50;;;32.51;30.00
21236;BME280;10775;42.678;26.324;2022-07-04T08:21:03;98791.03;;;32.15;31.83
21236;BME280;10775;42.678;26.324;2022-07-04T08:23:30;98789.28;;;31.55;31.23
21236;BME280;10775;42.678;26.324;2022-07-04T08:25:56;98779.88;;;32.10;32.27
21236;BME280;10775;42.678;26.324;2022-07-04T08:28:23;98784.38;;;32.52;31.55
21236;BME280;10775;42.678;26.324;2022-07-04T08:30:49;98782.50;;;32.53;31.20
21236;BME280;10775;42.678;26.324;2022-07-04T08:33:15;98788.75;;;32.53;32.16
21236;BME280;10775;42.678;26.324;2022-07-04T08:35:40;98794.38;;;31.67;31.50
21236;BME280;10775;42.678;26.324;2022-07-04T08:38:06;98783.84;;;32.48;31.46
21236;BME280;10775;42.678;26.324;2022-07-04T08:40:31;98787.97;;;32.10;32.88
21236;BME280;10775;42.678;26.324;2022-07-04T08:43:03;98782.13;;;32.72;32.01
21236;BME280;10775;42.678;26.324;2022-07-04T08:45:31;98785.66;;;32.40;29.43
21236;BME280;10775;42.678;26.324;2022-07-04T08:48:04;98778.53;;;32.31;32.07
21236;BME280;10775;42.678;26.324;2022-07-04T08:50:37;98788.75;;;32.86;31.71
21236;BME280;10775;42.678;26.324;2022-07-04T08:53:13;98779.59;;;32.87;32.19
21236;BME280;10775;42.678;26.324;2022-07-04T08:55:41;98784.19;;;32.70;29.70
21236;BME280;10775;42.678;26.324;2022-07-04T08:58:27;98782.56;;;32.10;33.47
21236;BME280;10775;42.678;26.324;2022-07-04T09:01:03;98775.72;;;32.81;32.75
21236;BME280;10775;42.678;26.324;2022-07-04T09:03:30;98778.41;;;32.89;32.34
21236;BME280;10775;42.678;26.324;2022-07-04T09:05:56;98776.41;;;32.75;32.44
21236;BME280;10775;42.678;26.324;2022-07-04T09:08:23;98764.91;;;32.57;30.19
21236;BME280;10775;42.678;26.324;2022-07-04T09:10:50;98772.34;;;32.55;32.15
21236;BME280;10775;42.678;26.324;2022-07-04T09:13:16;98768.97;;;32.53;33.36
21236;BME280;10775;42.678;26.324;2022-07-04T09:15:47;98774.66;;;32.33;28.98
21236;BME280;10775;42.678;26.324;2022-07-04T09:18:25;98778.94;;;32.93;32.04
21236;BME280;10775;42.678;26.324;2022-07-04T09:21:02;98775.69;;;32.89;32.51
21236;BME280;10775;42.678;26.324;2022-07-04T09:23:31;98778.22;;;32.99;30.67
21236;BME280;10775;42.678;26.324;2022-07-04T09:26:16;98767.84;;;33.35;31.52
21236;BME280;10775;42.678;26.324;2022-07-04T09:28:52;98775.00;;;32.30;33.55
21236;BME280;10775;42.678;26.324;2022-07-04T09:31:29;98771.75;;;32.18;33.69
21236;BME280;10775;42.678;26.324;2022-07-04T09:34:00;98765.22;;;32.62;30.02
21236;BME280;10775;42.678;26.324;2022-07-04T09:36:34;98769.28;;;32.99;32.72
21236;BME280;10775;42.678;26.324;2022-07-04T09:39:14;98770.16;;;32.58;30.10
21236;BME280;10775;42.678;26.324;2022-07-04T09:42:01;98764.47;;;31.94;31.89
21236;BME280;10775;42.678;26.324;2022-07-04T09:47:20;98766.88;;;32.30;30.89
21236;BME280;10775;42.678;26.324;2022-07-04T09:50:11;98761.66;;;33.10;28.48
21236;BME280;10775;42.678;26.324;2022-07-04T09:53:07;98766.56;;;33.15;26.68
21236;BME280;10775;42.678;26.324;2022-07-04T09:55:37;98762.19;;;32.57;26.16
21236;BME280;10775;42.678;26.324;2022-07-04T10:03:23;98756.41;;;33.17;31.87
21236;BME280;10775;42.678;26.324;2022-07-04T10:06:06;98761.41;;;31.97;25.64
21236;BME280;10775;42.678;26.324;2022-07-04T10:08:32;98754.34;;;32.04;33.81
21236;BME280;10775;42.678;26.324;2022-07-04T10:11:00;98750.13;;;32.18;25.94
21236;BME280;10775;42.678;26.324;2022-07-04T10:13:26;98748.66;;;32.81;31.67
21236;BME280;10775;42.678;26.324;2022-07-04T10:15:52;98735.31;;;32.63;30.76
21236;BME280;10775;42.678;26.324;2022-07-04T10:18:19;98738.19;;;32.54;28.71
21236;BME280;10775;42.678;26.324;2022-07-04T10:20:45;98735.91;;;32.00;32.46
21236;BME280;10775;42.678;26.324;2022-07-04T10:23:12;98735.41;;;32.04;25.55
21236;BME280;10775;42.678;26.324;2022-07-04T10:25:38;98733.56;;;31.97;32.37
21236;BME280;10775;42.678;26.324;2022-07-04T10:28:04;98729.31;;;31.94;33.23
21236;BME280;10775;42.678;26.324;2022-07-04T10:30:33;98724.28;;;32.08;30.66
21236;BME280;10775;42.678;26.324;2022-07-04T10:33:00;98717.19;;;31.98;25.87
21236;BME280;10775;42.678;26.324;2022-07-04T10:35:46;98726.16;;;32.32;32.95
21236;BME280;10775;42.678;26.324;2022-07-04T10:38:12;98720.47;;;31.68;30.00
21236;BME280;10775;42.678;26.324;2022-07-04T10:40:43;98726.47;;;32.20;33.21
21236;BME280;10775;42.678;26.324;2022-07-04T10:48:31;98723.66;;;31.37;26.37
21236;BME280;10775;42.678;26.324;2022-07-04T10:51:05;98719.09;;;31.72;32.88
21236;BME280;10775;42.678;26.324;2022-07-04T10:53:33;98716.75;;;31.85;33.04
21236;BME280;10775;42.678;26.324;2022-07-04T10:58:43;98707.38;;;32.38;32.71
21236;BME280;10775;42.678;26.324;2022-07-04T11:01:12;98711.09;;;32.21;33.83
21236;BME280;10775;42.678;26.324;2022-07-04T11:03:49;98703.00;;;32.54;28.35
21236;BME280;10775;42.678;26.324;2022-07-04T11:12:00;98695.16;;;33.16;28.99
21236;BME280;10775;42.678;26.324;2022-07-04T11:14:46;98689.66;;;32.60;33.83
21236;BME280;10775;42.678;26.324;2022-07-04T11:17:20;98683.91;;;32.22;33.68
21236;BME280;10775;42.678;26.324;2022-07-04T11:19:46;98686.59;;;32.22;29.70
21236;BME280;10775;42.678;26.324;2022-07-04T11:22:21;98686.44;;;32.48;34.45
21236;BME280;10775;42.678;26.324;2022-07-04T11:24:48;98677.28;;;32.00;26.09
21236;BME280;10775;42.678;26.324;2022-07-04T11:27:14;98678.13;;;31.42;29.57
21236;BME280;10775;42.678;26.324;2022-07-04T11:29:49;98677.31;;;32.17;30.74
21236;BME280;10775;42.678;26.324;2022-07-04T11:32:15;98670.22;;;32.57;34.70
21236;BME280;10775;42.678;26.324;2022-07-04T11:34:40;98667.78;;;32.86;31.30
21236;BME280;10775;42.678;26.324;2022-07-04T11:37:06;98668.69;;;32.62;34.22
21236;BME280;10775;42.678;26.324;2022-07-04T11:39:32;98653.47;;;32.28;25.90
21236;BME280;10775;42.678;26.324;2022-07-04T11:41:58;98657.38;;;32.10;25.70
21236;BME280;10775;42.678;26.324;2022-07-04T11:44:42;98651.94;;;32.59;25.49
21236;BME280;10775;42.678;26.324;2022-07-04T11:50:05;98655.66;;;32.33;25.74
21236;BME280;10775;42.678;26.324;2022-07-04T11:52:42;98650.94;;;32.43;32.16
21236;BME280;10775;42.678;26.324;2022-07-04T11:55:12;98645.53;;;32.11;26.95
21236;BME280;10775;42.678;26.324;2022-07-04T11:57:49;98640.94;;;31.87;29.51
21236;BME280;10775;42.678;26.324;2022-07-04T12:00:19;98641.16;;;32.01;34.10
21236;BME280;10775;42.678;26.324;2022-07-04T12:02:47;98640.81;;;32.29;27.06
21236;BME280;10775;42.678;26.324;2022-07-04T12:05:14;98635.75;;;32.51;31.55
21236;BME280;10775;42.678;26.324;2022-07-04T12:07:42;98630.97;;;32.36;31.93
21236;BME280;10775;42.678;26.324;2022-07-04T12:10:16;98634.38;;;32.30;31.23
21236;BME280;10775;42.678;26.324;2022-07-04T12:13:06;98635.72;;;32.59;30.49
21236;BME280;10775;42.678;26.324;2022-07-04T12:15:44;98636.44;;;32.03;29.35
21236;BME280;10775;42.678;26.324;2022-07-04T12:20:45;98637.44;;;32.19;25.80
21236;BME280;10775;42.678;26.324;2022-07-04T12:23:10;98637.91;;;32.31;26.02
21236;BME280;10775;42.678;26.324;2022-07-04T12:25:37;98636.94;;;32.32;28.25
21236;BME280;10775;42.678;26.324;2022-07-04T12:30:53;98629.50;;;32.50;26.15
21236;BME280;10775;42.678;26.324;2022-07-04T12:33:25;98631.69;;;32.05;31.89
21236;BME280;10775;42.678;26.324;2022-07-04T12:38:21;98632.34;;;32.08;31.08
21236;BME280;10775;42.678;26.324;2022-07-04T12:48:34;98633.53;;;32.54;32.24
21236;BME280;10775;42.678;26.324;2022-07-04T12:51:18;98635.03;;;32.65;26.76
21236;BME280;10775;42.678;26.324;2022-07-04T12:53:46;98635.75;;;32.51;32.19
21236;BME280;10775;42.678;26.324;2022-07-04T12:56:36;98634.72;;;32.52;31.97
21236;BME280;10775;42.678;26.324;2022-07-04T12:59:03;98635.06;;;32.16;25.44
21236;BME280;10775;42.678;26.324;2022-07-04T13:01:29;98629.00;;;32.14;26.07
21236;BME280;10775;42.678;26.324;2022-07-04T13:03:55;98638.44;;;32.34;29.85
21236;BME280;10775;42.678;26.324;2022-07-04T13:06:21;98629.81;;;32.22;33.95
21236;BME280;10775;42.678;26.324;2022-07-04T13:08:46;98636.41;;;32.20;34.56
21236;BME280;10775;42.678;26.324;2022-07-04T13:11:12;98630.00;;;32.29;29.67
21236;BME280;10775;42.678;26.324;2022-07-04T13:13:56;98625.41;;;32.38;33.30
21236;BME280;10775;42.678;26.324;2022-07-04T13:16:22;98621.22;;;32.27;35.45
21236;BME280;10775;42.678;26.324;2022-07-04T13:18:48;98613.41;;;32.16;34.95
21236;BME280;10775;42.678;26.324;2022-07-04T13:21:13;98615.13;;;32.25;34.48
21236;BME280;10775;42.678;26.324;2022-07-04T13:23:39;98618.84;;;32.24;31.49
21236;BME280;10775;42.678;26.324;2022-07-04T13:26:04;98615.78;;;32.11;31.53
21236;BME280;10775;42.678;26.324;2022-07-04T13:28:30;98614.94;;;32.51;32.08
21236;BME280;10775;42.678;26.324;2022-07-04T13:30:56;98612.72;;;32.38;32.44
21236;BME280;10775;42.678;26.324;2022-07-04T13:33:21;98614.25;;;32.57;35.41
21236;BME280;10775;42.678;26.324;2022-07-04T13:35:47;98608.69;;;32.34;30.17
21236;BME280;10775;42.678;26.324;2022-07-04T13:38:13;98606.00;;;32.34;35.66